sensor_id;sensor_type;location;lat;lon;timestamp;P1;durP1;ratioP1;P2;durP2;ratioP2
60436;SDS011;46289;51.992;4.498;2023-03-01T00:02:00;24.65;;;13.85;;
60436;SDS011;46289;51.992;4.498;2023-03-01T00:04:08;24.45;;;13.07;;
60436;SDS011;46289;51.992;4.498;2023-03-01T00:06:14;22.40;;;13.35;;
60436;SDS011;46289;51.992;4.498;2023-03-01T00:08:19;23.15;;;12.40;;
60436;SDS011;46289;51.992;4.498;2023-03-01T00:10:24;24.65;;;14.02;;
60436;SDS011;46289;51.992;4.498;2023-03-01T00:12:29;29.23;;;13.32;;
60436;SDS011;46289;51.992;4.498;2023-03-01T00:14:37;20.73;;;12.73;;
60436;SDS011;46289;51.992;4.498;2023-03-01T00:16:43;25.17;;;13.02;;
60436;SDS011;46289;51.992;4.498;2023-03-01T00:18:50;26.42;;;13.85;;
60436;SDS011;46289;51.992;4.498;2023-03-01T00:20:58;24.38;;;12.35;;
60436;SDS011;46289;51.992;4.498;2023-03-01T00:23:03;25.05;;;12.57;;
60436;SDS011;46289;51.992;4.498;2023-03-01T00:25:08;23.45;;;13.35;;
60436;SDS011;46289;51.992;4.498;2023-03-01T00:27:18;23.60;;;13.00;;
60436;SDS011;46289;51.992;4.498;2023-03-01T00:29:23;23.40;;;12.77;;
60436;SDS011;46289;51.992;4.498;2023-03-01T00:31:29;27.85;;;14.77;;
60436;SDS011;46289;51.992;4.498;2023-03-01T00:33:35;24.88;;;13.80;;
60436;SDS011;46289;51.992;4.498;2023-03-01T00:35:40;24.52;;;12.98;;
60436;SDS011;46289;51.992;4.498;2023-03-01T00:37:48;28.55;;;14.75;;
60436;SDS011;46289;51.992;4.498;2023-03-01T00:39:57;26.08;;;12.68;;
60436;SDS011;46289;51.992;4.498;2023-03-01T00:42:02;25.92;;;13.88;;
60436;SDS011;46289;51.992;4.498;2023-03-01T00:44:07;24.45;;;13.45;;
60436;SDS011;46289;51.992;4.498;2023-03-01T00:46:13;30.60;;;14.77;;
60436;SDS011;46289;51.992;4.498;2023-03-01T00:48:27;27.05;;;15.45;;
60436;SDS011;46289;51.992;4.498;2023-03-01T00:50:34;22.23;;;12.75;;
60436;SDS011;46289;51.992;4.498;2023-03-01T00:52:39;23.27;;;13.75;;
60436;SDS011;46289;51.992;4.498;2023-03-01T00:54:46;24.05;;;13.50;;
60436;SDS011;46289;51.992;4.498;2023-03-01T00:56:52;25.33;;;13.05;;
60436;SDS011;46289;51.992;4.498;2023-03-01T00:58:56;25.67;;;14.68;;
60436;SDS011;46289;51.992;4.498;2023-03-01T01:01:07;22.17;;;12.27;;
60436;SDS011;46289;51.992;4.498;2023-03-01T01:03:18;20.30;;;11.68;;
60436;SDS011;46289;51.992;4.498;2023-03-01T01:05:24;25.13;;;13.70;;
60436;SDS011;46289;51.992;4.498;2023-03-01T01:07:32;23.52;;;12.25;;
60436;SDS011;46289;51.992;4.498;2023-03-01T01:09:39;27.67;;;13.77;;
60436;SDS011;46289;51.992;4.498;2023-03-01T01:11:50;22.02;;;12.48;;
60436;SDS011;46289;51.992;4.498;2023-03-01T01:13:57;20.73;;;11.60;;
60436;SDS011;46289;51.992;4.498;2023-03-01T01:16:05;29.00;;;13.30;;
60436;SDS011;46289;51.992;4.498;2023-03-01T01:18:14;25.08;;;14.40;;
60436;SDS011;46289;51.992;4.498;2023-03-01T01:20:19;28.00;;;15.68;;
60436;SDS011;46289;51.992;4.498;2023-03-01T01:22:24;28.52;;;13.80;;
60436;SDS011;46289;51.992;4.498;2023-03-01T01:24:30;29.45;;;14.07;;
60436;SDS011;46289;51.992;4.498;2023-03-01T01:26:35;25.42;;;15.02;;
60436;SDS011;46289;51.992;4.498;2023-03-01T01:28:42;28.98;;;14.43;;
60436;SDS011;46289;51.992;4.498;2023-03-01T01:30:48;29.45;;;15.40;;
60436;SDS011;46289;51.992;4.498;2023-03-01T01:32:52;27.13;;;14.77;;
60436;SDS011;46289;51.992;4.498;2023-03-01T01:34:57;27.05;;;14.88;;
60436;SDS011;46289;51.992;4.498;2023-03-01T01:37:02;28.27;;;14.68;;
60436;SDS011;46289;51.992;4.498;2023-03-01T01:39:09;26.20;;;14.10;;
60436;SDS011;46289;51.992;4.498;2023-03-01T01:41:16;27.73;;;14.95;;
60436;SDS011;46289;51.992;4.498;2023-03-01T01:43:23;27.92;;;14.20;;
60436;SDS011;46289;51.992;4.498;2023-03-01T01:45:34;32.88;;;16.00;;
60436;SDS011;46289;51.992;4.498;2023-03-01T01:47:40;30.85;;;15.07;;
60436;SDS011;46289;51.992;4.498;2023-03-01T01:49:46;28.52;;;14.40;;
60436;SDS011;46289;51.992;4.498;2023-03-01T01:51:57;33.80;;;15.77;;
60436;SDS011;46289;51.992;4.498;2023-03-01T01:54:08;24.43;;;13.30;;
60436;SDS011;46289;51.992;4.498;2023-03-01T01:56:18;32.08;;;16.02;;
60436;SDS011;46289;51.992;4.498;2023-03-01T01:58:24;27.50;;;13.32;;
60436;SDS011;46289;51.992;4.498;2023-03-01T02:00:35;29.38;;;15.15;;
60436;SDS011;46289;51.992;4.498;2023-03-01T02:02:42;37.58;;;16.13;;
60436;SDS011;46289;51.992;4.498;2023-03-01T02:04:49;35.78;;;16.40;;
60436;SDS011;46289;51.992;4.498;2023-03-01T02:07:01;28.85;;;15.48;;
60436;SDS011;46289;51.992;4.498;2023-03-01T02:09:12;34.38;;;15.85;;
60436;SDS011;46289;51.992;4.498;2023-03-01T02:11:19;27.95;;;14.65;;
60436;SDS011;46289;51.992;4.498;2023-03-01T02:13:25;31.55;;;15.13;;
60436;SDS011;46289;51.992;4.498;2023-03-01T02:15:31;33.83;;;15.73;;
60436;SDS011;46289;51.992;4.498;2023-03-01T02:17:39;30.10;;;16.05;;
60436;SDS011;46289;51.992;4.498;2023-03-01T02:19:48;28.63;;;13.57;;
60436;SDS011;46289;51.992;4.498;2023-03-01T02:22:02;32.88;;;15.40;;
60436;SDS011;46289;51.992;4.498;2023-03-01T02:24:19;29.15;;;15.00;;
60436;SDS011;46289;51.992;4.498;2023-03-01T02:26:36;29.98;;;15.23;;
60436;SDS011;46289;51.992;4.498;2023-03-01T02:28:49;32.45;;;17.55;;
60436;SDS011;46289;51.992;4.498;2023-03-01T02:30:55;28.17;;;15.13;;
60436;SDS011;46289;51.992;4.498;2023-03-01T02:33:12;30.13;;;15.20;;
60436;SDS011;46289;51.992;4.498;2023-03-01T02:35:17;33.00;;;16.17;;
60436;SDS011;46289;51.992;4.498;2023-03-01T02:37:23;32.63;;;14.68;;
60436;SDS011;46289;51.992;4.498;2023-03-01T02:39:31;33.75;;;16.10;;
60436;SDS011;46289;51.992;4.498;2023-03-01T02:41:39;37.42;;;17.48;;
60436;SDS011;46289;51.992;4.498;2023-03-01T02:43:49;31.50;;;17.17;;
60436;SDS011;46289;51.992;4.498;2023-03-01T02:45:57;32.70;;;14.95;;
60436;SDS011;46289;51.992;4.498;2023-03-01T02:48:03;35.10;;;16.38;;
60436;SDS011;46289;51.992;4.498;2023-03-01T02:50:14;35.80;;;14.95;;
60436;SDS011;46289;51.992;4.498;2023-03-01T02:52:32;32.72;;;16.08;;
60436;SDS011;46289;51.992;4.498;2023-03-01T02:54:46;34.13;;;15.98;;
60436;SDS011;46289;51.992;4.498;2023-03-01T02:56:55;36.20;;;15.23;;
60436;SDS011;46289;51.992;4.498;2023-03-01T02:59:03;37.33;;;16.50;;
60436;SDS011;46289;51.992;4.498;2023-03-01T03:01:08;32.95;;;15.18;;
60436;SDS011;46289;51.992;4.498;2023-03-01T03:03:15;34.47;;;15.85;;
60436;SDS011;46289;51.992;4.498;2023-03-01T03:05:22;46.53;;;16.77;;
60436;SDS011;46289;51.992;4.498;2023-03-01T03:07:28;33.78;;;15.93;;
60436;SDS011;46289;51.992;4.498;2023-03-01T03:09:33;40.70;;;17.20;;
60436;SDS011;46289;51.992;4.498;2023-03-01T03:11:39;35.67;;;17.98;;
60436;SDS011;46289;51.992;4.498;2023-03-01T03:13:44;39.75;;;18.00;;
60436;SDS011;46289;51.992;4.498;2023-03-01T03:15:57;30.77;;;15.02;;
60436;SDS011;46289;51.992;4.498;2023-03-01T03:18:03;38.17;;;17.83;;
60436;SDS011;46289;51.992;4.498;2023-03-01T03:20:10;32.00;;;16.88;;
60436;SDS011;46289;51.992;4.498;2023-03-01T03:22:20;35.55;;;16.65;;
60436;SDS011;46289;51.992;4.498;2023-03-01T03:24:25;38.40;;;18.90;;
60436;SDS011;46289;51.992;4.498;2023-03-01T03:26:39;37.67;;;16.10;;
60436;SDS011;46289;51.992;4.498;2023-03-01T03:28:44;42.28;;;18.52;;
60436;SDS011;46289;51.992;4.498;2023-03-01T03:30:48;38.60;;;17.40;;
60436;SDS011;46289;51.992;4.498;2023-03-01T03:32:56;32.78;;;16.67;;
60436;SDS011;46289;51.992;4.498;2023-03-01T03:35:02;39.85;;;18.20;;
60436;SDS011;46289;51.992;4.498;2023-03-01T03:37:10;31.77;;;16.63;;
60436;SDS011;46289;51.992;4.498;2023-03-01T03:39:35;41.67;;;18.63;;
60436;SDS011;46289;51.992;4.498;2023-03-01T03:41:40;39.28;;;17.90;;
60436;SDS011;46289;51.992;4.498;2023-03-01T03:43:45;43.55;;;20.65;;
60436;SDS011;46289;51.992;4.498;2023-03-01T03:45:54;39.42;;;16.90;;
60436;SDS011;46289;51.992;4.498;2023-03-01T03:48:01;42.22;;;19.15;;
60436;SDS011;46289;51.992;4.498;2023-03-01T03:50:08;43.58;;;18.00;;
60436;SDS011;46289;51.992;4.498;2023-03-01T03:52:14;39.10;;;18.25;;
60436;SDS011;46289;51.992;4.498;2023-03-01T03:54:19;45.85;;;19.13;;
60436;SDS011;46289;51.992;4.498;2023-03-01T03:56:24;35.75;;;16.27;;
60436;SDS011;46289;51.992;4.498;2023-03-01T03:58:29;34.88;;;17.15;;
60436;SDS011;46289;51.992;4.498;2023-03-01T04:00:34;41.80;;;18.35;;
60436;SDS011;46289;51.992;4.498;2023-03-01T04:02:42;41.70;;;18.35;;
60436;SDS011;46289;51.992;4.498;2023-03-01T04:04:50;43.50;;;20.58;;
60436;SDS011;46289;51.992;4.498;2023-03-01T04:06:55;39.80;;;17.88;;
60436;SDS011;46289;51.992;4.498;2023-03-01T04:09:00;35.90;;;17.90;;
60436;SDS011;46289;51.992;4.498;2023-03-01T04:11:06;34.15;;;15.82;;
60436;SDS011;46289;51.992;4.498;2023-03-01T04:13:23;33.58;;;15.98;;
60436;SDS011;46289;51.992;4.498;2023-03-01T04:15:28;36.55;;;16.42;;
60436;SDS011;46289;51.992;4.498;2023-03-01T04:17:34;40.55;;;18.10;;
60436;SDS011;46289;51.992;4.498;2023-03-01T04:19:40;38.38;;;15.75;;
60436;SDS011;46289;51.992;4.498;2023-03-01T04:21:48;37.85;;;18.75;;
60436;SDS011;46289;51.992;4.498;2023-03-01T04:23:55;43.95;;;20.55;;
60436;SDS011;46289;51.992;4.498;2023-03-01T04:26:00;45.72;;;18.50;;
60436;SDS011;46289;51.992;4.498;2023-03-01T04:28:05;40.50;;;18.52;;
60436;SDS011;46289;51.992;4.498;2023-03-01T04:30:10;47.33;;;19.50;;
60436;SDS011;46289;51.992;4.498;2023-03-01T04:32:16;39.33;;;19.95;;
60436;SDS011;46289;51.992;4.498;2023-03-01T04:34:24;46.03;;;19.55;;
60436;SDS011;46289;51.992;4.498;2023-03-01T04:36:30;45.55;;;19.05;;
60436;SDS011;46289;51.992;4.498;2023-03-01T04:38:42;48.22;;;20.45;;
60436;SDS011;46289;51.992;4.498;2023-03-01T04:40:49;43.47;;;17.77;;
60436;SDS011;46289;51.992;4.498;2023-03-01T04:42:54;42.25;;;19.27;;
60436;SDS011;46289;51.992;4.498;2023-03-01T04:45:00;60.22;;;21.33;;
60436;SDS011;46289;51.992;4.498;2023-03-01T04:47:04;44.88;;;17.60;;
60436;SDS011;46289;51.992;4.498;2023-03-01T04:49:10;40.13;;;18.20;;
60436;SDS011;46289;51.992;4.498;2023-03-01T04:51:15;34.55;;;16.30;;
60436;SDS011;46289;51.992;4.498;2023-03-01T04:53:20;81.28;;;23.00;;
60436;SDS011;46289;51.992;4.498;2023-03-01T04:55:29;39.80;;;18.05;;
60436;SDS011;46289;51.992;4.498;2023-03-01T04:57:34;39.53;;;17.30;;
60436;SDS011;46289;51.992;4.498;2023-03-01T04:59:39;83.25;;;24.55;;
60436;SDS011;46289;51.992;4.498;2023-03-01T05:01:45;83.32;;;22.10;;
60436;SDS011;46289;51.992;4.498;2023-03-01T05:03:50;67.15;;;21.17;;
60436;SDS011;46289;51.992;4.498;2023-03-01T05:05:58;40.13;;;17.50;;
60436;SDS011;46289;51.992;4.498;2023-03-01T05:08:04;50.28;;;16.88;;
60436;SDS011;46289;51.992;4.498;2023-03-01T05:10:18;46.15;;;21.92;;
60436;SDS011;46289;51.992;4.498;2023-03-01T05:12:26;84.53;;;22.08;;
60436;SDS011;46289;51.992;4.498;2023-03-01T05:14:31;78.80;;;22.05;;
60436;SDS011;46289;51.992;4.498;2023-03-01T05:16:36;40.83;;;20.30;;
60436;SDS011;46289;51.992;4.498;2023-03-01T05:18:41;34.50;;;15.85;;
60436;SDS011;46289;51.992;4.498;2023-03-01T05:20:50;28.45;;;13.93;;
60436;SDS011;46289;51.992;4.498;2023-03-01T05:22:59;44.47;;;19.67;;
60436;SDS011;46289;51.992;4.498;2023-03-01T05:25:07;42.90;;;18.83;;
60436;SDS011;46289;51.992;4.498;2023-03-01T05:27:16;41.10;;;19.50;;
60436;SDS011;46289;51.992;4.498;2023-03-01T05:29:26;31.35;;;15.15;;
60436;SDS011;46289;51.992;4.498;2023-03-01T05:31:33;41.35;;;18.67;;
60436;SDS011;46289;51.992;4.498;2023-03-01T05:33:40;35.20;;;17.70;;
60436;SDS011;46289;51.992;4.498;2023-03-01T05:35:45;35.17;;;16.80;;
60436;SDS011;46289;51.992;4.498;2023-03-01T05:37:50;39.75;;;17.10;;
60436;SDS011;46289;51.992;4.498;2023-03-01T05:40:02;46.50;;;20.27;;
60436;SDS011;46289;51.992;4.498;2023-03-01T05:42:22;40.90;;;19.48;;
60436;SDS011;46289;51.992;4.498;2023-03-01T05:44:29;46.05;;;21.88;;
60436;SDS011;46289;51.992;4.498;2023-03-01T05:46:34;48.10;;;19.70;;
60436;SDS011;46289;51.992;4.498;2023-03-01T05:48:39;38.38;;;17.58;;
60436;SDS011;46289;51.992;4.498;2023-03-01T05:50:44;43.05;;;20.30;;
60436;SDS011;46289;51.992;4.498;2023-03-01T05:52:58;33.35;;;15.45;;
60436;SDS011;46289;51.992;4.498;2023-03-01T05:55:05;35.20;;;15.65;;
60436;SDS011;46289;51.992;4.498;2023-03-01T05:57:11;41.33;;;19.15;;
60436;SDS011;46289;51.992;4.498;2023-03-01T05:59:16;33.75;;;17.08;;
60436;SDS011;46289;51.992;4.498;2023-03-01T06:01:23;41.85;;;20.20;;
60436;SDS011;46289;51.992;4.498;2023-03-01T06:03:28;32.47;;;15.98;;
60436;SDS011;46289;51.992;4.498;2023-03-01T06:08:00;37.33;;;18.52;;
60436;SDS011;46289;51.992;4.498;2023-03-01T06:10:05;35.03;;;17.77;;
60436;SDS011;46289;51.992;4.498;2023-03-01T06:12:11;39.33;;;18.58;;
60436;SDS011;46289;51.992;4.498;2023-03-01T06:14:16;52.90;;;21.92;;
60436;SDS011;46289;51.992;4.498;2023-03-01T06:16:24;40.90;;;18.25;;
60436;SDS011;46289;51.992;4.498;2023-03-01T06:18:30;35.60;;;18.88;;
60436;SDS011;46289;51.992;4.498;2023-03-01T06:20:35;42.13;;;16.70;;
60436;SDS011;46289;51.992;4.498;2023-03-01T06:22:40;41.47;;;17.63;;
60436;SDS011;46289;51.992;4.498;2023-03-01T06:24:45;43.00;;;19.58;;
60436;SDS011;46289;51.992;4.498;2023-03-01T06:26:52;45.92;;;20.45;;
60436;SDS011;46289;51.992;4.498;2023-03-01T06:28:57;48.22;;;21.15;;
60436;SDS011;46289;51.992;4.498;2023-03-01T06:31:02;46.03;;;19.10;;
60436;SDS011;46289;51.992;4.498;2023-03-01T06:33:13;44.45;;;18.63;;
60436;SDS011;46289;51.992;4.498;2023-03-01T06:35:18;42.97;;;19.83;;
60436;SDS011;46289;51.992;4.498;2023-03-01T06:37:23;41.38;;;17.75;;
60436;SDS011;46289;51.992;4.498;2023-03-01T06:39:28;29.50;;;15.10;;
60436;SDS011;46289;51.992;4.498;2023-03-01T06:41:33;38.88;;;18.08;;
60436;SDS011;46289;51.992;4.498;2023-03-01T06:43:38;39.65;;;18.90;;
60436;SDS011;46289;51.992;4.498;2023-03-01T06:45:43;46.72;;;18.48;;
60436;SDS011;46289;51.992;4.498;2023-03-01T06:47:48;42.20;;;21.05;;
60436;SDS011;46289;51.992;4.498;2023-03-01T06:49:55;42.15;;;16.45;;
60436;SDS011;46289;51.992;4.498;2023-03-01T06:52:00;46.80;;;21.25;;
60436;SDS011;46289;51.992;4.498;2023-03-01T06:54:05;41.95;;;18.48;;
60436;SDS011;46289;51.992;4.498;2023-03-01T06:56:10;40.72;;;19.88;;
60436;SDS011;46289;51.992;4.498;2023-03-01T06:58:16;39.55;;;17.70;;
60436;SDS011;46289;51.992;4.498;2023-03-01T07:00:21;43.67;;;19.90;;
60436;SDS011;46289;51.992;4.498;2023-03-01T07:02:26;53.00;;;21.95;;
60436;SDS011;46289;51.992;4.498;2023-03-01T07:04:31;39.00;;;17.30;;
60436;SDS011;46289;51.992;4.498;2023-03-01T07:06:39;44.40;;;19.80;;
60436;SDS011;46289;51.992;4.498;2023-03-01T07:08:44;40.40;;;18.52;;
60436;SDS011;46289;51.992;4.498;2023-03-01T07:10:51;47.75;;;20.50;;
60436;SDS011;46289;51.992;4.498;2023-03-01T07:12:59;44.00;;;17.88;;
60436;SDS011;46289;51.992;4.498;2023-03-01T07:15:04;37.70;;;20.85;;
60436;SDS011;46289;51.992;4.498;2023-03-01T07:17:10;42.45;;;19.27;;
60436;SDS011;46289;51.992;4.498;2023-03-01T07:19:15;41.85;;;19.05;;
60436;SDS011;46289;51.992;4.498;2023-03-01T07:21:20;41.60;;;16.90;;
60436;SDS011;46289;51.992;4.498;2023-03-01T07:23:27;46.65;;;21.17;;
60436;SDS011;46289;51.992;4.498;2023-03-01T07:25:33;42.90;;;19.08;;
60436;SDS011;46289;51.992;4.498;2023-03-01T07:27:38;43.15;;;19.90;;
60436;SDS011;46289;51.992;4.498;2023-03-01T07:29:43;50.38;;;21.85;;
60436;SDS011;46289;51.992;4.498;2023-03-01T07:31:49;36.05;;;17.85;;
60436;SDS011;46289;51.992;4.498;2023-03-01T07:33:54;38.95;;;17.90;;
60436;SDS011;46289;51.992;4.498;2023-03-01T07:36:00;40.92;;;18.58;;
60436;SDS011;46289;51.992;4.498;2023-03-01T07:38:06;46.85;;;20.88;;
60436;SDS011;46289;51.992;4.498;2023-03-01T07:40:13;49.17;;;21.48;;
60436;SDS011;46289;51.992;4.498;2023-03-01T07:42:19;48.35;;;22.27;;
60436;SDS011;46289;51.992;4.498;2023-03-01T07:44:24;47.05;;;21.95;;
60436;SDS011;46289;51.992;4.498;2023-03-01T07:46:29;42.53;;;21.30;;
60436;SDS011;46289;51.992;4.498;2023-03-01T07:48:34;50.78;;;23.60;;
60436;SDS011;46289;51.992;4.498;2023-03-01T07:50:39;54.33;;;22.73;;
60436;SDS011;46289;51.992;4.498;2023-03-01T07:52:44;54.35;;;23.60;;
60436;SDS011;46289;51.992;4.498;2023-03-01T07:54:52;52.03;;;23.77;;
60436;SDS011;46289;51.992;4.498;2023-03-01T07:56:59;65.75;;;24.42;;
60436;SDS011;46289;51.992;4.498;2023-03-01T07:59:04;47.83;;;22.65;;
60436;SDS011;46289;51.992;4.498;2023-03-01T08:01:10;62.55;;;24.08;;
60436;SDS011;46289;51.992;4.498;2023-03-01T08:03:16;61.28;;;25.80;;
60436;SDS011;46289;51.992;4.498;2023-03-01T08:05:21;54.38;;;22.20;;
60436;SDS011;46289;51.992;4.498;2023-03-01T08:07:28;52.75;;;24.17;;
60436;SDS011;46289;51.992;4.498;2023-03-01T08:09:34;67.15;;;25.50;;
60436;SDS011;46289;51.992;4.498;2023-03-01T08:11:39;60.72;;;24.30;;
60436;SDS011;46289;51.992;4.498;2023-03-01T08:13:46;53.85;;;22.73;;
60436;SDS011;46289;51.992;4.498;2023-03-01T08:15:54;61.97;;;25.38;;
60436;SDS011;46289;51.992;4.498;2023-03-01T08:17:59;60.38;;;25.70;;
60436;SDS011;46289;51.992;4.498;2023-03-01T08:20:04;66.55;;;26.25;;
60436;SDS011;46289;51.992;4.498;2023-03-01T08:22:14;55.35;;;24.58;;
60436;SDS011;46289;51.992;4.498;2023-03-01T08:24:19;63.05;;;23.25;;
60436;SDS011;46289;51.992;4.498;2023-03-01T08:26:24;56.20;;;25.42;;
60436;SDS011;46289;51.992;4.498;2023-03-01T08:28:30;54.55;;;22.30;;
60436;SDS011;46289;51.992;4.498;2023-03-01T08:30:42;62.63;;;23.88;;
60436;SDS011;46289;51.992;4.498;2023-03-01T08:32:47;63.15;;;24.95;;
60436;SDS011;46289;51.992;4.498;2023-03-01T08:34:52;66.43;;;25.75;;
60436;SDS011;46289;51.992;4.498;2023-03-01T08:36:57;70.93;;;28.17;;
60436;SDS011;46289;51.992;4.498;2023-03-01T08:39:02;63.97;;;25.98;;
60436;SDS011;46289;51.992;4.498;2023-03-01T08:41:07;70.75;;;26.25;;
60436;SDS011;46289;51.992;4.498;2023-03-01T08:43:12;65.90;;;25.55;;
60436;SDS011;46289;51.992;4.498;2023-03-01T08:45:17;63.45;;;24.98;;
60436;SDS011;46289;51.992;4.498;2023-03-01T08:47:24;57.22;;;22.52;;
60436;SDS011;46289;51.992;4.498;2023-03-01T08:49:30;59.28;;;21.75;;
60436;SDS011;46289;51.992;4.498;2023-03-01T08:51:36;64.28;;;22.92;;
60436;SDS011;46289;51.992;4.498;2023-03-01T08:53:46;44.55;;;19.92;;
60436;SDS011;46289;51.992;4.498;2023-03-01T08:55:51;48.95;;;19.63;;
60436;SDS011;46289;51.992;4.498;2023-03-01T08:57:56;43.83;;;17.48;;
60436;SDS011;46289;51.992;4.498;2023-03-01T09:00:01;43.15;;;19.27;;
60436;SDS011;46289;51.992;4.498;2023-03-01T09:02:12;44.67;;;17.55;;
60436;SDS011;46289;51.992;4.498;2023-03-01T09:04:21;49.40;;;19.27;;
60436;SDS011;46289;51.992;4.498;2023-03-01T09:06:26;44.72;;;17.33;;
60436;SDS011;46289;51.992;4.498;2023-03-01T09:08:31;39.00;;;16.30;;
60436;SDS011;46289;51.992;4.498;2023-03-01T09:10:38;46.20;;;17.60;;
60436;SDS011;46289;51.992;4.498;2023-03-01T09:12:43;39.10;;;18.38;;
60436;SDS011;46289;51.992;4.498;2023-03-01T09:14:48;37.85;;;17.88;;
60436;SDS011;46289;51.992;4.498;2023-03-01T09:16:53;51.78;;;19.90;;
60436;SDS011;46289;51.992;4.498;2023-03-01T09:18:57;40.35;;;16.30;;
60436;SDS011;46289;51.992;4.498;2023-03-01T09:21:06;44.55;;;17.45;;
60436;SDS011;46289;51.992;4.498;2023-03-01T09:23:12;41.35;;;18.10;;
60436;SDS011;46289;51.992;4.498;2023-03-01T09:25:16;37.92;;;15.85;;
60436;SDS011;46289;51.992;4.498;2023-03-01T09:27:21;32.58;;;14.95;;
60436;SDS011;46289;51.992;4.498;2023-03-01T09:29:28;35.35;;;15.05;;
60436;SDS011;46289;51.992;4.498;2023-03-01T09:31:33;33.28;;;15.38;;
60436;SDS011;46289;51.992;4.498;2023-03-01T09:33:38;36.63;;;13.27;;
60436;SDS011;46289;51.992;4.498;2023-03-01T09:35:45;32.20;;;15.35;;
60436;SDS011;46289;51.992;4.498;2023-03-01T09:37:52;35.50;;;15.27;;
60436;SDS011;46289;51.992;4.498;2023-03-01T09:39:58;40.90;;;15.73;;
60436;SDS011;46289;51.992;4.498;2023-03-01T09:42:03;33.72;;;16.17;;
60436;SDS011;46289;51.992;4.498;2023-03-01T09:44:13;31.85;;;14.00;;
60436;SDS011;46289;51.992;4.498;2023-03-01T09:46:28;32.92;;;14.05;;
60436;SDS011;46289;51.992;4.498;2023-03-01T09:48:37;30.92;;;13.68;;
60436;SDS011;46289;51.992;4.498;2023-03-01T09:50:48;29.60;;;11.82;;
60436;SDS011;46289;51.992;4.498;2023-03-01T09:52:59;27.27;;;12.88;;
60436;SDS011;46289;51.992;4.498;2023-03-01T09:55:13;27.52;;;12.02;;
60436;SDS011;46289;51.992;4.498;2023-03-01T09:57:20;34.03;;;12.70;;
60436;SDS011;46289;51.992;4.498;2023-03-01T09:59:40;27.55;;;11.32;;
60436;SDS011;46289;51.992;4.498;2023-03-01T10:01:56;33.80;;;12.88;;
60436;SDS011;46289;51.992;4.498;2023-03-01T10:04:12;26.55;;;12.32;;
60436;SDS011;46289;51.992;4.498;2023-03-01T10:11:19;20.70;;;10.15;;
60436;SDS011;46289;51.992;4.498;2023-03-01T10:13:29;23.17;;;10.07;;
60436;SDS011;46289;51.992;4.498;2023-03-01T10:15:42;21.95;;;10.07;;
60436;SDS011;46289;51.992;4.498;2023-03-01T10:17:57;19.20;;;9.52;;
60436;SDS011;46289;51.992;4.498;2023-03-01T10:20:13;23.13;;;10.27;;
60436;SDS011;46289;51.992;4.498;2023-03-01T10:22:22;22.30;;;10.60;;
60436;SDS011;46289;51.992;4.498;2023-03-01T10:24:35;19.13;;;8.35;;
60436;SDS011;46289;51.992;4.498;2023-03-01T10:26:47;20.58;;;9.43;;
60436;SDS011;46289;51.992;4.498;2023-03-01T10:29:00;22.90;;;11.05;;
60436;SDS011;46289;51.992;4.498;2023-03-01T10:31:08;21.10;;;9.43;;
60436;SDS011;46289;51.992;4.498;2023-03-01T10:33:20;17.73;;;9.85;;
60436;SDS011;46289;51.992;4.498;2023-03-01T10:35:28;18.80;;;8.90;;
60436;SDS011;46289;51.992;4.498;2023-03-01T10:37:34;23.10;;;9.00;;
60436;SDS011;46289;51.992;4.498;2023-03-01T10:40:03;23.30;;;9.70;;
60436;SDS011;46289;51.992;4.498;2023-03-01T10:42:19;21.65;;;9.27;;
60436;SDS011;46289;51.992;4.498;2023-03-01T10:44:40;19.42;;;9.25;;
60436;SDS011;46289;51.992;4.498;2023-03-01T10:46:58;15.98;;;7.72;;
60436;SDS011;46289;51.992;4.498;2023-03-01T10:49:15;19.00;;;9.40;;
60436;SDS011;46289;51.992;4.498;2023-03-01T10:51:22;26.73;;;10.23;;
60436;SDS011;46289;51.992;4.498;2023-03-01T10:53:28;20.48;;;9.73;;
60436;SDS011;46289;51.992;4.498;2023-03-01T10:55:47;26.92;;;11.55;;
60436;SDS011;46289;51.992;4.498;2023-03-01T10:58:06;27.20;;;10.75;;
60436;SDS011;46289;51.992;4.498;2023-03-01T11:00:26;27.77;;;10.65;;
60436;SDS011;46289;51.992;4.498;2023-03-01T11:02:31;25.92;;;11.60;;
60436;SDS011;46289;51.992;4.498;2023-03-01T11:04:39;26.98;;;10.98;;
60436;SDS011;46289;51.992;4.498;2023-03-01T11:07:01;21.48;;;9.93;;
60436;SDS011;46289;51.992;4.498;2023-03-01T11:09:13;25.85;;;11.55;;
60436;SDS011;46289;51.992;4.498;2023-03-01T11:11:34;24.80;;;10.18;;
60436;SDS011;46289;51.992;4.498;2023-03-01T11:13:46;28.33;;;11.95;;
60436;SDS011;46289;51.992;4.498;2023-03-01T11:18:19;24.52;;;10.15;;
60436;SDS011;46289;51.992;4.498;2023-03-01T11:20:37;24.10;;;11.55;;
60436;SDS011;46289;51.992;4.498;2023-03-01T11:22:45;33.35;;;12.50;;
60436;SDS011;46289;51.992;4.498;2023-03-01T11:24:52;28.40;;;12.10;;
60436;SDS011;46289;51.992;4.498;2023-03-01T11:27:22;28.40;;;12.05;;
60436;SDS011;46289;51.992;4.498;2023-03-01T11:29:30;29.20;;;11.35;;
60436;SDS011;46289;51.992;4.498;2023-03-01T11:31:49;29.63;;;12.05;;
60436;SDS011;46289;51.992;4.498;2023-03-01T11:33:59;25.45;;;11.27;;
60436;SDS011;46289;51.992;4.498;2023-03-01T11:36:15;24.45;;;11.95;;
60436;SDS011;46289;51.992;4.498;2023-03-01T11:38:34;26.27;;;12.90;;
60436;SDS011;46289;51.992;4.498;2023-03-01T11:40:41;31.77;;;12.60;;
60436;SDS011;46289;51.992;4.498;2023-03-01T11:43:01;31.10;;;12.50;;
60436;SDS011;46289;51.992;4.498;2023-03-01T11:45:14;29.45;;;12.95;;
60436;SDS011;46289;51.992;4.498;2023-03-01T11:47:27;35.60;;;12.20;;
60436;SDS011;46289;51.992;4.498;2023-03-01T11:52:16;28.80;;;12.45;;
60436;SDS011;46289;51.992;4.498;2023-03-01T11:54:33;31.75;;;12.45;;
60436;SDS011;46289;51.992;4.498;2023-03-01T11:56:52;24.77;;;10.90;;
60436;SDS011;46289;51.992;4.498;2023-03-01T11:59:22;23.40;;;10.50;;
60436;SDS011;46289;51.992;4.498;2023-03-01T12:01:42;26.15;;;10.45;;
60436;SDS011;46289;51.992;4.498;2023-03-01T12:04:03;27.38;;;11.30;;
60436;SDS011;46289;51.992;4.498;2023-03-01T12:09:01;23.02;;;10.95;;
60436;SDS011;46289;51.992;4.498;2023-03-01T12:11:23;24.23;;;11.38;;
60436;SDS011;46289;51.992;4.498;2023-03-01T12:13:48;27.15;;;11.93;;
60436;SDS011;46289;51.992;4.498;2023-03-01T12:16:29;23.73;;;11.05;;
60436;SDS011;46289;51.992;4.498;2023-03-01T12:18:49;28.88;;;12.63;;
60436;SDS011;46289;51.992;4.498;2023-03-01T12:21:08;26.90;;;11.95;;
60436;SDS011;46289;51.992;4.498;2023-03-01T12:25:51;25.15;;;12.13;;
60436;SDS011;46289;51.992;4.498;2023-03-01T12:28:07;27.13;;;13.50;;
60436;SDS011;46289;51.992;4.498;2023-03-01T12:30:25;32.45;;;13.93;;
60436;SDS011;46289;51.992;4.498;2023-03-01T12:32:43;31.15;;;13.25;;
60436;SDS011;46289;51.992;4.498;2023-03-01T12:35:03;23.63;;;10.43;;
60436;SDS011;46289;51.992;4.498;2023-03-01T12:37:21;24.95;;;11.45;;
60436;SDS011;46289;51.992;4.498;2023-03-01T12:39:42;22.35;;;11.85;;
60436;SDS011;46289;51.992;4.498;2023-03-01T12:42:00;25.85;;;12.25;;
60436;SDS011;46289;51.992;4.498;2023-03-01T12:44:15;21.40;;;10.50;;
60436;SDS011;46289;51.992;4.498;2023-03-01T12:46:35;18.05;;;9.38;;
60436;SDS011;46289;51.992;4.498;2023-03-01T12:48:59;24.20;;;9.80;;
60436;SDS011;46289;51.992;4.498;2023-03-01T12:51:13;23.30;;;10.98;;